Aviation Digital Data Service (ADDS)

Output produced by METARs form (2301 UTC 21 May 2022)
found at http://www.aviationweather.gov/metar/data/
 
LLBG 212250Z 20011KT 9999 FEW014 BKN020 22/19 Q1010 NOSIG
TAF LLBG 211703Z 2118/2218 19008KT CAVOK 
     BECMG 2120/2122 9999 SCT015 
     BECMG 2200/2202 SCT017 BKN025 
     BECMG 2207/2209 26013KT FEW025 
     BECMG 2215/2217 21008KT TX25/2210Z TN20/2203Z
       
TAF LLHA 211706Z 2118/2218 21006KT CAVOK 
     PROB40 2118/2119 30006KT 
     BECMG 2122/2124 24012KT 9999 SCT025 
     PROB40 
     TEMPO 2200/2206 21006KT FEW015 BKN020 TX24/2210Z TN20/2204Z
       
TAF LLIB 211111Z 2112/2212 08012KT CAVOK 
     FM211300 36010KT 8000 NSC 
     PROB40 2115/2117 5000 DU 
     BECMG 2117/2119 18006KT CAVOK 
     PROB40 2122/2206 VRB04KT 6000 SCT015 
     BECMG 2206/2208 24010KT FEW020 TX34/2113Z TN19/2203Z